createdAt,value
2023-04-08T00:00:10.396Z,2.45
2023-04-08T00:02:38.025Z,2.70
2023-04-08T00:05:05.784Z,2.75
2023-04-08T00:07:33.182Z,3.30
2023-04-08T00:10:00.535Z,2.72
2023-04-08T00:12:28.036Z,3.25
2023-04-08T00:14:55.559Z,3.83
2023-04-08T00:17:22.926Z,4.03
2023-04-08T00:19:50.257Z,4.22
2023-04-08T00:22:17.795Z,4.90
2023-04-08T00:24:45.116Z,4.05
2023-04-08T00:27:12.469Z,4.65
2023-04-08T00:29:39.793Z,4.68
2023-04-08T00:32:07.543Z,4.90
2023-04-08T00:34:34.844Z,4.35
2023-04-08T00:37:02.204Z,3.30
2023-04-08T00:39:29.591Z,3.17
2023-04-08T00:41:57.814Z,2.60
2023-04-08T00:44:25.122Z,2.83
2023-04-08T00:46:52.514Z,3.03
2023-04-08T00:49:20.180Z,3.17
2023-04-08T00:51:47.621Z,3.53
2023-04-08T00:54:14.945Z,3.10
2023-04-08T00:56:44.447Z,3.20
2023-04-08T00:59:11.841Z,3.45
2023-04-08T01:01:50.046Z,3.67
2023-04-08T01:04:17.470Z,3.83
2023-04-08T01:06:48.142Z,3.97
2023-04-08T01:09:19.364Z,4.22
2023-04-08T01:11:50.001Z,4.30
2023-04-08T01:14:19.205Z,4.40
2023-04-08T01:16:47.018Z,4.40
2023-04-08T01:19:22.030Z,5.40
2023-04-08T01:21:49.645Z,5.40
2023-04-08T01:24:21.313Z,5.07
2023-04-08T01:26:48.634Z,5.80
2023-04-08T01:29:16.805Z,5.43
2023-04-08T01:31:44.967Z,5.70
2023-04-08T01:34:13.798Z,5.38
2023-04-08T01:36:41.993Z,5.60
2023-04-08T01:39:09.655Z,5.30
2023-04-08T01:41:37.194Z,5.13
2023-04-08T01:44:05.682Z,5.68
2023-04-08T01:46:33.882Z,6.00
2023-04-08T01:49:01.342Z,5.82
2023-04-08T01:51:29.373Z,5.35
2023-04-08T01:53:56.697Z,5.90
2023-04-08T01:56:24.601Z,5.55
2023-04-08T01:58:53.067Z,6.90
2023-04-08T02:01:21.981Z,5.82
2023-04-08T02:03:52.317Z,6.38
2023-04-08T02:06:19.788Z,6.43
2023-04-08T02:08:47.248Z,6.88
2023-04-08T02:11:14.689Z,6.68
2023-04-08T02:13:42.154Z,6.93
2023-04-08T02:16:25.918Z,6.28
2023-04-08T02:18:57.577Z,6.60
2023-04-08T02:21:28.796Z,7.25
2023-04-08T02:23:56.822Z,6.15
2023-04-08T02:26:25.875Z,6.72
2023-04-08T02:28:54.273Z,7.85
2023-04-08T02:31:22.379Z,7.10
2023-04-08T02:33:49.976Z,6.60
2023-04-08T02:36:17.546Z,7.43
2023-04-08T02:38:49.182Z,7.18
2023-04-08T02:41:16.880Z,6.40
2023-04-08T02:43:44.354Z,6.32
2023-04-08T02:46:12.537Z,7.50
2023-04-08T02:48:39.980Z,6.72
2023-04-08T02:51:07.367Z,6.90
2023-04-08T02:53:34.693Z,7.07
2023-04-08T02:56:01.972Z,7.05
2023-04-08T02:58:32.105Z,7.00
2023-04-08T03:00:59.461Z,7.47
2023-04-08T03:03:30.521Z,7.88
2023-04-08T03:05:58.490Z,7.43
2023-04-08T03:08:26.078Z,8.35
2023-04-08T03:10:53.443Z,7.70
2023-04-08T03:13:20.883Z,7.63
2023-04-08T03:15:48.258Z,8.23
2023-04-08T03:18:15.755Z,7.63
2023-04-08T03:20:43.115Z,7.72
2023-04-08T03:23:10.583Z,7.90
2023-04-08T03:25:38.159Z,9.55
2023-04-08T03:28:05.495Z,8.70
2023-04-08T03:30:33.156Z,7.72
2023-04-08T03:33:00.618Z,8.40
2023-04-08T03:35:28.657Z,8.13
2023-04-08T03:37:56.025Z,8.43
2023-04-08T03:40:23.351Z,8.18
2023-04-08T03:42:50.779Z,9.35
2023-04-08T03:45:18.087Z,8.60
2023-04-08T03:47:45.477Z,6.95
2023-04-08T03:50:12.955Z,6.97
2023-04-08T03:52:40.334Z,7.45
2023-04-08T03:55:07.898Z,7.35
2023-04-08T03:57:35.336Z,7.53
2023-04-08T04:00:02.726Z,7.78
2023-04-08T04:02:30.150Z,7.38
2023-04-08T04:04:57.594Z,7.55
2023-04-08T04:07:24.966Z,8.00
2023-04-08T04:09:54.405Z,8.07
2023-04-08T04:12:21.851Z,7.60
2023-04-08T04:14:49.194Z,7.30
2023-04-08T04:17:16.716Z,7.57
2023-04-08T04:19:44.109Z,7.75
2023-04-08T04:22:11.875Z,7.75
2023-04-08T04:24:39.699Z,6.97
2023-04-08T04:27:07.103Z,6.60
2023-04-08T04:29:34.462Z,6.45
2023-04-08T04:32:01.777Z,7.68
2023-04-08T04:34:29.157Z,9.40
2023-04-08T04:36:56.781Z,6.65
2023-04-08T04:39:24.177Z,6.97
2023-04-08T04:41:51.999Z,7.30
2023-04-08T04:44:19.882Z,7.85
2023-04-08T04:46:48.746Z,7.38
2023-04-08T04:49:16.078Z,9.20
2023-04-08T04:51:43.492Z,7.93
2023-04-08T04:54:10.965Z,8.68
2023-04-08T04:56:38.352Z,8.68
2023-04-08T04:59:06.017Z,8.32
2023-04-08T05:01:33.436Z,7.47
2023-04-08T05:04:00.903Z,7.80
2023-04-08T05:06:28.290Z,7.05
2023-04-08T05:08:55.809Z,8.07
2023-04-08T05:11:23.235Z,6.68
2023-04-08T05:13:50.573Z,7.32
2023-04-08T05:16:18.147Z,6.72
2023-04-08T05:18:45.952Z,7.28
2023-04-08T05:21:13.278Z,7.40
2023-04-08T05:23:40.600Z,6.63
2023-04-08T05:26:09.086Z,6.25
2023-04-08T05:28:36.719Z,6.22
2023-04-08T05:31:04.145Z,7.75
2023-04-08T05:33:31.639Z,7.25
2023-04-08T05:35:59.026Z,6.43
2023-04-08T05:38:26.473Z,7.53
2023-04-08T05:40:53.773Z,6.38
2023-04-08T05:43:21.197Z,6.03
2023-04-08T05:45:48.514Z,7.03
2023-04-08T05:48:16.168Z,6.93
2023-04-08T05:50:43.605Z,7.20
2023-04-08T05:53:11.542Z,7.00
2023-04-08T05:55:38.953Z,6.38
2023-04-08T05:58:06.309Z,6.97
2023-04-08T06:00:33.666Z,6.30
2023-04-08T06:03:01.427Z,7.22
2023-04-08T06:05:28.902Z,7.35
2023-04-08T06:07:56.289Z,6.70
2023-04-08T06:10:23.625Z,7.38
2023-04-08T06:12:51.002Z,6.68
2023-04-08T06:15:18.699Z,7.18
2023-04-08T06:17:46.186Z,6.97
2023-04-08T06:20:13.605Z,6.88
2023-04-08T06:22:41.009Z,6.85
2023-04-08T06:25:08.590Z,7.05
2023-04-08T06:27:36.027Z,7.40
2023-04-08T06:30:03.350Z,7.07
2023-04-08T06:32:31.050Z,6.57
2023-04-08T06:34:58.428Z,7.13
2023-04-08T06:37:25.777Z,7.35
2023-04-08T06:39:53.104Z,7.78
2023-04-08T06:42:22.561Z,7.53
2023-04-08T06:44:50.651Z,7.00
2023-04-08T06:47:18.054Z,7.85
2023-04-08T06:49:45.394Z,7.55
2023-04-08T06:52:14.761Z,7.32
2023-04-08T06:54:42.696Z,7.57
2023-04-08T06:57:11.524Z,8.60
2023-04-08T06:59:38.903Z,8.18
2023-04-08T07:02:06.887Z,8.18
2023-04-08T07:04:34.236Z,7.90
2023-04-08T07:07:01.583Z,7.95
2023-04-08T07:09:29.263Z,8.60
2023-04-08T07:11:57.829Z,8.50
2023-04-08T07:14:25.186Z,8.93
2023-04-08T07:16:52.603Z,9.65
2023-04-08T07:19:19.974Z,8.45
2023-04-08T07:21:47.288Z,8.15
2023-04-08T07:24:14.747Z,20.52
2023-04-08T07:26:42.288Z,18.77
2023-04-08T07:29:09.659Z,10.02
2023-04-08T07:31:37.106Z,10.02
2023-04-08T07:34:04.454Z,9.80
2023-04-08T07:36:31.933Z,8.85
2023-04-08T07:38:59.336Z,9.00
2023-04-08T07:41:27.264Z,8.70
2023-04-08T07:43:54.710Z,7.93
2023-04-08T07:46:22.056Z,8.73
2023-04-08T07:48:49.616Z,7.95
2023-04-08T07:51:17.450Z,7.68
2023-04-08T07:53:48.123Z,9.02
2023-04-08T07:56:16.407Z,7.78
2023-04-08T07:58:43.980Z,8.02
2023-04-08T08:01:22.106Z,7.38
2023-04-08T08:03:50.313Z,8.93
2023-04-08T08:06:18.091Z,10.55
2023-04-08T08:08:45.907Z,10.00
2023-04-08T08:11:13.483Z,8.90
2023-04-08T08:13:41.021Z,8.10
2023-04-08T08:16:11.707Z,8.32
2023-04-08T08:18:40.472Z,13.75
2023-04-08T08:21:08.069Z,10.30
2023-04-08T08:23:35.406Z,8.30
2023-04-08T08:26:12.978Z,13.25
2023-04-08T08:28:40.530Z,8.93
2023-04-08T08:31:08.096Z,8.18
2023-04-08T08:33:35.798Z,8.20
2023-04-08T08:36:05.387Z,7.25
2023-04-08T08:38:32.753Z,7.53
2023-04-08T08:41:00.832Z,7.95
2023-04-08T08:43:28.759Z,8.25
2023-04-08T08:45:56.219Z,8.00
2023-04-08T08:48:23.551Z,8.38
2023-04-08T08:50:51.015Z,8.85
2023-04-08T08:53:19.867Z,7.45
2023-04-08T08:58:17.504Z,7.22
2023-04-08T09:00:45.332Z,9.32
2023-04-08T09:03:26.068Z,7.00
2023-04-08T09:05:53.532Z,8.27
2023-04-08T09:08:25.035Z,9.35
2023-04-08T09:10:52.546Z,7.43
2023-04-08T09:13:19.863Z,7.35
2023-04-08T09:16:06.587Z,7.72
2023-04-08T09:18:34.416Z,7.25
2023-04-08T09:21:02.438Z,9.07
2023-04-08T09:23:43.731Z,8.55
2023-04-08T09:26:12.146Z,8.10
2023-04-08T09:28:40.092Z,8.13
2023-04-08T09:31:21.247Z,7.43
2023-04-08T09:33:49.786Z,8.70
2023-04-08T09:36:17.753Z,8.48
2023-04-08T09:38:45.819Z,9.40
2023-04-08T09:41:16.896Z,8.30
2023-04-08T09:44:04.806Z,7.28
2023-04-08T09:46:35.026Z,8.15
2023-04-08T09:49:12.184Z,9.65
2023-04-08T09:51:49.590Z,9.02
2023-04-08T09:54:19.992Z,8.70
2023-04-08T09:57:01.998Z,9.57
2023-04-08T09:59:34.326Z,9.25
2023-04-08T10:02:06.202Z,9.50
2023-04-08T10:04:36.677Z,8.80
2023-04-08T10:07:05.602Z,9.13
2023-04-08T10:09:33.778Z,8.05
2023-04-08T10:12:02.071Z,9.00
2023-04-08T10:14:29.402Z,7.88
2023-04-08T10:17:16.608Z,8.85
2023-04-08T10:19:46.771Z,9.18
2023-04-08T10:22:32.691Z,8.50
2023-04-08T10:25:18.893Z,9.27
2023-04-08T10:27:46.576Z,8.13
2023-04-08T10:30:29.026Z,8.35
2023-04-08T10:32:56.974Z,9.93
2023-04-08T10:35:34.507Z,7.80
2023-04-08T10:38:02.339Z,8.20
2023-04-08T10:40:30.078Z,8.10
2023-04-08T10:42:57.777Z,7.90
2023-04-08T10:45:25.481Z,6.57
2023-04-08T10:47:52.975Z,7.78
2023-04-08T10:50:23.848Z,7.93
2023-04-08T10:52:52.298Z,8.05
2023-04-08T10:55:26.852Z,8.30
2023-04-08T10:57:56.438Z,10.00
2023-04-08T11:00:34.563Z,11.23
2023-04-08T11:03:02.603Z,11.45
2023-04-08T11:05:30.007Z,11.35
2023-04-08T11:07:57.442Z,14.85
2023-04-08T11:10:24.786Z,13.50
2023-04-08T11:12:52.168Z,13.43
2023-04-08T11:15:19.546Z,13.93
2023-04-08T11:17:47.801Z,12.95
2023-04-08T11:20:15.649Z,13.45
2023-04-08T11:22:43.024Z,12.77
2023-04-08T11:25:10.532Z,11.45
2023-04-08T11:27:39.649Z,11.25
2023-04-08T11:30:08.266Z,11.27
2023-04-08T11:32:36.696Z,11.68
2023-04-08T11:35:07.568Z,10.18
2023-04-08T11:37:41.654Z,11.00
2023-04-08T11:40:10.127Z,10.80
2023-04-08T11:42:38.018Z,9.82
2023-04-08T11:45:16.412Z,10.35
2023-04-08T11:47:44.504Z,9.23
2023-04-08T11:50:12.134Z,10.30
2023-04-08T11:52:49.455Z,9.23
2023-04-08T11:55:43.379Z,9.55
2023-04-08T11:58:10.719Z,8.65
2023-04-08T12:00:38.732Z,8.52
2023-04-08T12:03:06.883Z,7.65
2023-04-08T12:05:34.444Z,8.88
2023-04-08T12:08:01.788Z,8.50
2023-04-08T12:10:29.300Z,7.63
2023-04-08T12:12:56.627Z,8.70
2023-04-08T12:15:23.934Z,6.65
2023-04-08T12:17:51.368Z,6.65
2023-04-08T12:20:18.976Z,6.75
2023-04-08T12:22:46.527Z,7.30
2023-04-08T12:25:13.858Z,7.55
2023-04-08T12:27:41.245Z,7.00
2023-04-08T12:30:08.978Z,6.07
2023-04-08T12:32:36.331Z,6.65
2023-04-08T12:35:03.727Z,7.82
2023-04-08T12:37:31.105Z,6.32
2023-04-08T12:39:58.436Z,7.32
2023-04-08T12:42:25.794Z,7.53
2023-04-08T12:44:53.134Z,8.50
2023-04-08T12:47:20.496Z,9.05
2023-04-08T12:49:49.906Z,7.75
2023-04-08T12:52:17.787Z,6.10
2023-04-08T12:54:45.302Z,6.95
2023-04-08T12:57:12.947Z,7.07
2023-04-08T12:59:40.343Z,6.60
2023-04-08T13:02:08.303Z,6.88
2023-04-08T13:04:35.936Z,5.82
2023-04-08T13:07:04.620Z,7.07
2023-04-08T13:09:32.014Z,7.32
2023-04-08T13:11:59.858Z,7.35
2023-04-08T13:14:27.659Z,7.40
2023-04-08T13:16:55.187Z,4.32
2023-04-08T13:19:22.618Z,4.10
2023-04-08T13:21:49.970Z,3.72
2023-04-08T13:24:17.303Z,4.50
2023-04-08T13:26:44.688Z,4.13
2023-04-08T13:29:12.092Z,4.03
2023-04-08T13:31:39.579Z,4.50
2023-04-08T13:34:07.287Z,3.97
2023-04-08T13:36:34.665Z,4.30
2023-04-08T13:39:02.243Z,4.20
2023-04-08T13:41:30.251Z,3.95
2023-04-08T13:43:57.629Z,4.50
2023-04-08T13:46:25.068Z,3.88
2023-04-08T13:48:52.759Z,4.43
2023-04-08T13:51:20.528Z,4.63
2023-04-08T13:53:47.885Z,4.43
2023-04-08T13:56:15.510Z,4.63
2023-04-08T13:58:43.657Z,4.65
2023-04-08T14:01:11.321Z,4.60
2023-04-08T14:03:38.706Z,4.85
2023-04-08T14:06:06.067Z,5.13
2023-04-08T14:08:33.413Z,4.53
2023-04-08T14:11:00.900Z,4.47
2023-04-08T14:13:28.271Z,5.18
2023-04-08T14:15:58.562Z,3.53
2023-04-08T14:18:26.322Z,5.25
2023-04-08T14:20:53.695Z,5.18
2023-04-08T14:23:21.362Z,4.95
2023-04-08T14:25:48.716Z,5.00
2023-04-08T14:28:16.042Z,4.93
2023-04-08T14:30:43.963Z,4.40
2023-04-08T14:33:11.605Z,4.15
2023-04-08T14:35:38.990Z,5.68
2023-04-08T14:38:06.490Z,5.47
2023-04-08T14:40:34.475Z,5.45
2023-04-08T14:43:02.776Z,4.13
2023-04-08T14:45:30.181Z,4.70
2023-04-08T14:47:57.514Z,5.60
2023-04-08T14:50:24.974Z,5.85
2023-04-08T14:52:52.373Z,5.40
2023-04-08T14:55:22.640Z,6.32
2023-04-08T14:57:50.066Z,5.15
2023-04-08T15:00:17.435Z,6.30
2023-04-08T15:02:44.859Z,5.57
2023-04-08T15:05:12.351Z,6.72
2023-04-08T15:07:39.756Z,6.75
2023-04-08T15:10:07.404Z,6.03
2023-04-08T15:12:34.733Z,7.30
2023-04-08T15:15:02.196Z,6.28
2023-04-08T15:17:29.563Z,7.00
2023-04-08T15:19:57.004Z,7.70
2023-04-08T15:22:24.360Z,7.50
2023-04-08T15:24:51.806Z,8.27
2023-04-08T15:27:19.877Z,7.38
2023-04-08T15:29:47.845Z,7.55
2023-04-08T15:32:15.201Z,7.75
2023-04-08T15:34:42.539Z,8.05
2023-04-08T15:37:09.894Z,10.07
2023-04-08T15:39:37.321Z,11.50
2023-04-08T15:42:05.562Z,7.97
2023-04-08T15:44:33.076Z,8.43
2023-04-08T15:47:00.501Z,8.50
2023-04-08T15:49:27.811Z,7.82
2023-04-08T15:51:55.272Z,8.85
2023-04-08T15:54:22.577Z,8.65
2023-04-08T15:56:49.978Z,8.23
2023-04-08T15:59:17.305Z,9.18
2023-04-08T16:01:44.689Z,7.97
2023-04-08T16:04:12.943Z,8.48
2023-04-08T16:06:40.626Z,8.88
2023-04-08T16:09:07.932Z,8.55
2023-04-08T16:11:36.174Z,9.75
2023-04-08T16:14:05.213Z,10.48
2023-04-08T16:16:33.248Z,8.25
2023-04-08T16:19:02.439Z,9.25
2023-04-08T16:21:30.670Z,8.80
2023-04-08T16:23:58.005Z,8.82
2023-04-08T16:26:27.346Z,8.15
2023-04-08T16:28:54.661Z,8.40
2023-04-08T16:31:22.051Z,8.57
2023-04-08T16:33:49.861Z,8.18
2023-04-08T16:36:17.512Z,8.00
2023-04-08T16:38:44.949Z,9.45
2023-04-08T16:41:12.311Z,7.45
2023-04-08T16:43:39.592Z,8.85
2023-04-08T16:46:11.821Z,9.07
2023-04-08T16:48:39.602Z,8.32
2023-04-08T16:51:07.097Z,8.90
2023-04-08T16:53:34.643Z,9.48
2023-04-08T16:56:02.013Z,9.52
2023-04-08T16:58:29.336Z,9.23
2023-04-08T17:00:57.081Z,9.57
2023-04-08T17:03:26.936Z,9.30
2023-04-08T17:05:54.335Z,9.02
2023-04-08T17:08:23.939Z,9.57
2023-04-08T17:10:51.295Z,10.18
2023-04-08T17:13:18.654Z,9.88
2023-04-08T17:15:46.000Z,9.75
2023-04-08T17:18:13.391Z,10.00
2023-04-08T17:20:40.788Z,11.60
2023-04-08T17:23:08.541Z,9.05
2023-04-08T17:25:35.965Z,9.25
2023-04-08T17:28:03.400Z,8.27
2023-04-08T17:30:30.747Z,8.57
2023-04-08T17:32:58.057Z,8.88
2023-04-08T17:35:25.435Z,9.05
2023-04-08T17:37:52.747Z,8.82
2023-04-08T17:40:20.366Z,8.00
2023-04-08T17:42:47.810Z,9.45
2023-04-08T17:45:15.241Z,9.15
2023-04-08T17:47:43.723Z,9.90
2023-04-08T17:50:11.923Z,9.20
2023-04-08T17:52:39.458Z,10.98
2023-04-08T17:55:08.154Z,9.10
2023-04-08T17:57:35.500Z,12.02
2023-04-08T18:00:02.921Z,13.57
2023-04-08T18:02:30.614Z,10.70
2023-04-08T18:04:58.744Z,9.75
2023-04-08T18:07:26.079Z,9.07
2023-04-08T18:09:53.532Z,8.85
2023-04-08T18:12:21.718Z,9.77
2023-04-08T18:14:49.034Z,9.57
2023-04-08T18:17:16.613Z,10.45
2023-04-08T18:19:43.929Z,10.05
2023-04-08T18:22:11.261Z,8.38
2023-04-08T18:24:38.560Z,7.97
2023-04-08T18:27:06.165Z,8.73
2023-04-08T18:29:33.579Z,8.82
2023-04-08T18:32:00.974Z,9.43
2023-04-08T18:34:28.323Z,8.25
2023-04-08T18:36:55.674Z,8.25
2023-04-08T18:39:23.181Z,8.65
2023-04-08T18:41:50.557Z,8.50
2023-04-08T18:44:17.896Z,9.30
2023-04-08T18:46:46.106Z,7.80
2023-04-08T18:49:13.441Z,8.85
2023-04-08T18:51:44.015Z,9.00
2023-04-08T18:54:16.386Z,9.48
2023-04-08T18:56:43.728Z,7.95
2023-04-08T18:59:13.611Z,8.88
2023-04-08T19:01:41.618Z,7.75
2023-04-08T19:04:12.251Z,7.95
2023-04-08T19:06:40.286Z,8.07
2023-04-08T19:09:07.724Z,6.88
2023-04-08T19:11:35.068Z,8.43
2023-04-08T19:14:02.565Z,9.23
2023-04-08T19:16:29.930Z,9.05
2023-04-08T19:18:57.290Z,9.55
2023-04-08T19:21:24.748Z,10.07
2023-04-08T19:23:52.244Z,9.05
2023-04-08T19:26:19.840Z,9.40
2023-04-08T19:28:47.472Z,8.35
2023-04-08T19:31:18.570Z,7.72
2023-04-08T19:33:46.039Z,7.63
2023-04-08T19:36:13.479Z,7.40
2023-04-08T19:38:41.077Z,8.13
2023-04-08T19:41:08.387Z,8.63
2023-04-08T19:43:35.798Z,10.13
2023-04-08T19:46:03.849Z,11.00
2023-04-08T19:48:32.896Z,45.42
2023-04-08T19:51:00.320Z,10.80
2023-04-08T19:53:27.706Z,8.77
2023-04-08T19:56:01.942Z,29.58
2023-04-08T19:58:29.341Z,9.23
2023-04-08T20:00:56.770Z,7.60
2023-04-08T20:03:24.248Z,7.53
2023-04-08T20:05:52.669Z,32.80
2023-04-08T20:08:20.019Z,26.50
2023-04-08T20:10:49.280Z,8.98
2023-04-08T20:13:16.730Z,8.82
2023-04-08T20:15:45.544Z,7.18
2023-04-08T20:18:14.762Z,9.60
2023-04-08T20:20:43.143Z,11.00
2023-04-08T20:23:10.780Z,11.85
2023-04-08T20:25:38.808Z,27.05
2023-04-08T20:28:06.369Z,19.60
2023-04-08T20:30:33.711Z,19.35
2023-04-08T20:33:01.182Z,32.78
2023-04-08T20:35:28.589Z,25.58
2023-04-08T20:37:56.249Z,14.57
2023-04-08T20:40:23.660Z,12.93
2023-04-08T20:42:51.018Z,11.73
2023-04-08T20:45:18.345Z,8.90
2023-04-08T20:47:46.321Z,7.60
2023-04-08T20:50:13.838Z,12.13
2023-04-08T20:52:41.283Z,10.35
2023-04-08T20:55:08.994Z,13.13
2023-04-08T20:57:36.674Z,14.00
2023-04-08T21:00:05.901Z,13.15
2023-04-08T21:02:33.931Z,12.60
2023-04-08T21:05:01.425Z,11.48
2023-04-08T21:07:28.849Z,10.57
2023-04-08T21:09:56.354Z,11.88
2023-04-08T21:12:23.680Z,9.57
2023-04-08T21:14:51.344Z,8.73
2023-04-08T21:17:18.751Z,8.65
2023-04-08T21:19:46.910Z,7.53
2023-04-08T21:22:14.280Z,8.35
2023-04-08T21:24:41.634Z,7.53
2023-04-08T21:27:08.962Z,8.13
2023-04-08T21:29:36.480Z,8.45
2023-04-08T21:32:03.843Z,9.20
2023-04-08T21:34:31.291Z,10.75
2023-04-08T21:36:58.678Z,9.43
2023-04-08T21:39:26.018Z,8.38
2023-04-08T21:41:53.435Z,8.70
2023-04-08T21:44:20.895Z,10.63
2023-04-08T21:46:49.786Z,10.40
2023-04-08T21:49:17.362Z,18.38
2023-04-08T21:51:44.733Z,14.75
2023-04-08T21:54:12.778Z,11.30
2023-04-08T21:56:40.112Z,11.18
2023-04-08T21:59:07.407Z,11.63
2023-04-08T22:01:34.848Z,12.88
2023-04-08T22:04:02.514Z,13.02
2023-04-08T22:06:32.547Z,11.90
2023-04-08T22:09:00.467Z,12.35
2023-04-08T22:11:27.817Z,11.63
2023-04-08T22:13:55.181Z,11.45
2023-04-08T22:16:22.601Z,12.63
2023-04-08T22:18:50.263Z,13.13
2023-04-08T22:21:17.804Z,15.15
2023-04-08T22:23:45.595Z,14.48
2023-04-08T22:26:14.518Z,15.20
2023-04-08T22:28:43.029Z,15.40
2023-04-08T22:31:13.759Z,15.18
2023-04-08T22:33:41.800Z,14.43
2023-04-08T22:36:09.202Z,15.30
2023-04-08T22:38:36.607Z,16.23
2023-04-08T22:41:03.972Z,15.98
2023-04-08T22:43:31.422Z,16.48
2023-04-08T22:45:58.837Z,18.83
2023-04-08T22:48:26.234Z,19.60
2023-04-08T22:50:53.644Z,18.90
2023-04-08T22:53:21.393Z,18.05
2023-04-08T22:55:48.700Z,18.02
2023-04-08T22:58:16.188Z,20.20
2023-04-08T23:00:43.542Z,18.73
2023-04-08T23:03:10.938Z,19.13
2023-04-08T23:05:38.379Z,18.83
2023-04-08T23:08:05.872Z,18.05
2023-04-08T23:10:33.193Z,17.40
2023-04-08T23:13:00.522Z,19.42
2023-04-08T23:15:27.807Z,16.98
2023-04-08T23:17:55.159Z,17.92
2023-04-08T23:20:22.544Z,17.20
2023-04-08T23:22:49.873Z,17.05
2023-04-08T23:25:17.264Z,17.85
2023-04-08T23:27:45.893Z,17.67
2023-04-08T23:30:13.338Z,17.25
2023-04-08T23:32:40.761Z,17.17
2023-04-08T23:35:10.412Z,16.52
2023-04-08T23:37:37.764Z,16.25
2023-04-08T23:40:05.301Z,17.85
2023-04-08T23:42:32.722Z,16.90
2023-04-08T23:45:00.154Z,15.45
2023-04-08T23:47:27.521Z,15.30
2023-04-08T23:49:54.838Z,14.93
2023-04-08T23:52:22.194Z,15.70
2023-04-08T23:54:52.780Z,15.82
2023-04-08T23:57:23.351Z,14.68
2023-04-08T23:59:50.837Z,14.18
